Time;durP1;ratioP1;P1;durP2;ratioP2;P2;SDS_P1;SDS_P2;PMS_P1;PMS_P2;Temp;Humidity;BMP_temperature;BMP_pressure;BME280_temperature;BME280_humidity;BME280_pressure;Samples;Min_cycle;Max_cycle;Signal;HPM_P1;HPM_P2
2023/01/08 00:00:45;;;;;;;4.75;2.10;;;10.30;99.90;;;;;;5056545;28;20045;-76
2023/01/08 00:03:12;;;;;;;4.68;2.35;;;10.30;99.90;;;;;;5056127;28;20060;-76
2023/01/08 00:05:37;;;;;;;4.68;2.17;;;10.30;99.90;;;;;;5048610;28;20038;-76
2023/01/08 00:08:04;;;;;;;6.30;2.55;;;10.30;99.90;;;;;;5036214;28;20052;-76
2023/01/08 00:10:29;;;;;;;4.10;2.05;;;10.30;99.90;;;;;;5036269;28;20121;-76
2023/01/08 00:12:55;;;;;;;4.72;2.10;;;10.30;99.90;;;;;;5036075;28;20489;-76
2023/01/08 00:15:21;;;;;;;5.53;2.35;;;10.30;99.90;;;;;;5051389;28;20045;-76
2023/01/08 00:17:46;;;;;;;5.00;2.38;;;10.30;99.90;;;;;;5054711;28;20044;-76
2023/01/08 00:20:14;;;;;;;5.63;2.67;;;10.20;99.90;;;;;;5053926;28;20045;-76
2023/01/08 00:22:39;;;;;;;5.50;2.30;;;10.30;99.90;;;;;;5056103;28;20083;-76
2023/01/08 00:25:06;;;;;;;4.15;2.00;;;10.20;99.90;;;;;;5054268;28;20123;-76
2023/01/08 00:27:31;;;;;;;6.32;2.83;;;10.20;99.90;;;;;;5037070;28;20037;-76
2023/01/08 00:29:57;;;;;;;4.28;2.05;;;10.20;99.90;;;;;;5055772;28;20080;-75
2023/01/08 00:32:23;;;;;;;5.63;2.35;;;10.20;99.90;;;;;;5054781;28;20067;-76
2023/01/08 00:34:48;;;;;;;3.65;2.13;;;10.30;99.90;;;;;;5053232;28;20471;-76
2023/01/08 00:37:17;;;;;;;4.40;2.00;;;10.30;99.90;;;;;;5055715;28;20040;-75
2023/01/08 00:39:43;;;;;;;5.22;2.20;;;10.30;99.90;;;;;;5055508;28;20045;-76
2023/01/08 00:42:09;;;;;;;5.50;2.20;;;10.40;99.90;;;;;;5055521;28;20044;-76
2023/01/08 00:44:34;;;;;;;4.53;2.20;;;10.40;99.90;;;;;;5053958;28;20098;-76
2023/01/08 00:47:00;;;;;;;7.05;2.50;;;10.40;99.90;;;;;;5055491;28;20041;-76
2023/01/08 00:49:25;;;;;;;5.38;2.05;;;10.40;99.90;;;;;;5054086;28;20118;-76
2023/01/08 00:51:51;;;;;;;4.65;2.10;;;10.40;99.90;;;;;;5055443;28;20178;-76
2023/01/08 00:54:16;;;;;;;6.25;2.20;;;10.50;99.90;;;;;;5054545;28;20044;-76
2023/01/08 00:56:42;;;;;;;5.45;2.20;;;10.40;99.90;;;;;;5054002;28;20662;-76
2023/01/08 00:59:08;;;;;;;4.55;2.00;;;10.30;99.90;;;;;;5055174;28;20056;-76
2023/01/08 01:01:33;;;;;;;5.57;2.53;;;10.40;99.90;;;;;;5054076;28;20128;-76
2023/01/08 01:03:59;;;;;;;5.70;2.45;;;10.40;99.90;;;;;;5048293;28;20045;-75
2023/01/08 01:06:24;;;;;;;4.15;2.20;;;10.30;99.90;;;;;;5035301;28;20053;-75
2023/01/08 01:08:51;;;;;;;4.60;2.50;;;10.30;99.90;;;;;;5035066;28;20490;-75
2023/01/08 01:11:20;;;;;;;4.80;2.60;;;10.30;99.90;;;;;;5034993;28;20045;-75
2023/01/08 01:13:46;;;;;;;4.75;2.53;;;10.30;99.90;;;;;;5037916;28;20045;-75
2023/01/08 01:16:12;;;;;;;5.10;2.78;;;10.30;99.90;;;;;;5053700;28;20094;-75
2023/01/08 01:18:37;;;;;;;5.43;2.53;;;10.20;99.90;;;;;;5052115;28;20044;-75
2023/01/08 01:21:16;;;;;;;6.00;2.60;;;10.30;99.90;;;;;;5053084;28;20409;-75
2023/01/08 01:23:42;;;;;;;5.05;2.60;;;10.30;99.90;;;;;;5053893;28;20476;-75
2023/01/08 01:26:17;;;;;;;5.93;2.63;;;10.30;99.90;;;;;;5053525;28;20059;-75
2023/01/08 01:28:42;;;;;;;3.75;2.30;;;10.30;99.90;;;;;;5054694;28;20048;-75
2023/01/08 01:31:12;;;;;;;6.72;2.70;;;10.30;99.90;;;;;;5054590;28;20124;-75
2023/01/08 01:33:37;;;;;;;5.50;2.78;;;10.20;99.90;;;;;;5050593;28;20154;-75
2023/01/08 01:36:03;;;;;;;4.82;2.38;;;10.20;99.90;;;;;;5053094;28;20072;-75
2023/01/08 01:38:29;;;;;;;6.50;2.50;;;10.20;99.90;;;;;;5054620;28;20037;-75
2023/01/08 01:40:55;;;;;;;7.03;2.40;;;10.20;99.90;;;;;;5054518;28;20396;-75
2023/01/08 01:43:41;;;;;;;4.43;2.03;;;10.20;99.90;;;;;;5053971;28;20043;-75
2023/01/08 01:46:32;;;;;;;4.47;1.95;;;10.20;99.90;;;;;;5033474;28;20398;-76
2023/01/08 01:49:01;;;;;;;5.35;2.50;;;10.20;99.90;;;;;;5024067;28;20079;-75
2023/01/08 01:51:31;;;;;;;5.22;1.92;;;10.10;99.90;;;;;;5052671;28;20633;-76
2023/01/08 01:53:59;;;;;;;7.88;2.00;;;10.20;99.90;;;;;;5052149;28;20029;-76
2023/01/08 01:56:26;;;;;;;6.70;1.90;;;10.20;99.90;;;;;;5052851;28;20420;-76
2023/01/08 01:58:52;;;;;;;5.45;2.00;;;10.10;99.90;;;;;;5053177;28;20033;-76
2023/01/08 02:01:18;;;;;;;3.95;1.50;;;10.00;99.90;;;;;;5052055;28;20048;-76
2023/01/08 02:03:44;;;;;;;4.43;1.48;;;10.00;99.90;;;;;;5053136;28;20041;-75
2023/01/08 02:06:19;;;;;;;4.00;1.50;;;10.10;99.90;;;;;;5054115;28;20103;-75
2023/01/08 02:08:51;;;;;;;5.45;1.40;;;10.10;99.90;;;;;;5053259;28;20037;-75
2023/01/08 02:11:38;;;;;;;2.67;1.10;;;10.10;99.90;;;;;;5051385;28;20103;-75
2023/01/08 02:14:31;;;;;;;3.63;1.17;;;10.00;99.90;;;;;;5049273;28;20033;-76
2023/01/08 02:17:09;;;;;;;5.18;1.23;;;10.00;99.90;;;;;;5051823;28;20044;-76
2023/01/08 02:19:46;;;;;;;9.48;1.90;;;9.90;99.90;;;;;;5048766;28;20124;-76
2023/01/08 02:22:21;;;;;;;4.38;1.08;;;9.80;99.90;;;;;;5043799;28;20508;-76
2023/01/08 02:25:08;;;;;;;6.35;1.27;;;9.80;99.90;;;;;;5036323;28;20041;-75
2023/01/08 02:27:36;;;;;;;7.07;1.05;;;9.80;99.90;;;;;;5053521;28;20405;-75
2023/01/08 02:30:04;;;;;;;7.25;1.10;;;9.80;99.90;;;;;;5050877;28;20397;-75
2023/01/08 02:32:36;;;;;;;6.07;1.15;;;9.70;99.90;;;;;;5053607;28;20044;-76
2023/01/08 02:35:03;;;;;;;9.55;1.70;;;9.70;99.90;;;;;;5052741;28;20083;-76
2023/01/08 02:37:28;;;;;;;6.53;1.38;;;9.70;99.90;;;;;;5053484;28;20033;-75
2023/01/08 02:40:29;;;;;;;10.00;2.05;;;9.70;99.90;;;;;;5052714;28;20087;-75
2023/01/08 02:43:09;;;;;;;11.55;1.80;;;9.60;99.90;;;;;;5053189;28;20044;-75
2023/01/08 02:45:45;;;;;;;6.05;1.05;;;9.60;99.90;;;;;;5033655;28;20037;-75
2023/01/08 02:48:41;;;;;;;6.90;1.48;;;9.50;99.90;;;;;;5033915;28;20037;-76
2023/01/08 02:51:20;;;;;;;8.10;1.83;;;9.50;99.90;;;;;;5032115;28;20068;-75
2023/01/08 02:53:50;;;;;;;6.28;1.73;;;9.50;99.90;;;;;;5038759;28;20049;-75
2023/01/08 02:56:27;;;;;;;5.57;1.58;;;9.50;99.90;;;;;;5052032;28;20509;-76
2023/01/08 02:58:54;;;;;;;9.57;1.60;;;9.50;99.90;;;;;;5051057;28;20047;-76
2023/01/08 03:01:22;;;;;;;7.72;1.58;;;9.40;99.90;;;;;;5036594;28;20037;-75
2023/01/08 03:03:55;;;;;;;10.55;1.63;;;9.40;99.90;;;;;;5053318;28;20057;-75
2023/01/08 03:06:22;;;;;;;7.70;1.95;;;9.40;99.90;;;;;;5052510;28;20040;-76
2023/01/08 03:08:50;;;;;;;8.35;1.55;;;9.40;99.90;;;;;;5052537;28;20041;-76
2023/01/08 03:11:19;;;;;;;8.57;1.67;;;9.30;99.90;;;;;;5053141;28;20041;-76
2023/01/08 03:14:05;;;;;;;5.70;1.30;;;9.30;99.90;;;;;;5054125;28;20068;-76
2023/01/08 03:16:47;;;;;;;6.80;1.20;;;9.30;99.90;;;;;;5057445;28;20500;-75
2023/01/08 03:19:19;;;;;;;7.10;1.35;;;9.30;99.90;;;;;;5056032;28;20396;-76
2023/01/08 03:21:46;;;;;;;8.60;1.40;;;9.20;99.90;;;;;;5056257;28;20056;-76
2023/01/08 03:24:17;;;;;;;8.77;1.40;;;9.10;99.90;;;;;;5055433;28;20538;-76
2023/01/08 03:26:45;;;;;;;4.93;1.13;;;9.00;99.90;;;;;;5056078;28;20045;-76
2023/01/08 03:29:14;;;;;;;6.55;1.58;;;9.10;99.90;;;;;;5057122;28;20045;-76
2023/01/08 03:31:40;;;;;;;10.15;1.60;;;9.20;99.90;;;;;;5056977;28;20037;-76
2023/01/08 03:34:06;;;;;;;7.55;1.88;;;9.10;99.90;;;;;;5056223;28;20489;-76
2023/01/08 03:36:34;;;;;;;9.35;1.40;;;9.20;99.90;;;;;;5056127;28;20112;-76
2023/01/08 03:39:08;;;;;;;5.35;1.67;;;9.10;99.90;;;;;;5056663;28;20049;-76
2023/01/08 03:41:35;;;;;;;9.50;1.65;;;9.10;99.90;;;;;;5055508;28;20510;-76
2023/01/08 03:44:01;;;;;;;6.05;1.45;;;9.10;99.90;;;;;;5038336;28;20076;-76
2023/01/08 03:46:38;;;;;;;5.72;1.58;;;9.10;99.90;;;;;;5055311;28;20068;-76
2023/01/08 03:49:05;;;;;;;7.60;1.88;;;9.10;99.90;;;;;;5055462;28;20041;-76
2023/01/08 03:51:42;;;;;;;12.85;1.98;;;9.10;99.90;;;;;;5054833;28;20102;-77
2023/01/08 03:54:13;;;;;;;8.45;1.88;;;9.10;99.90;;;;;;5055606;28;20041;-76
2023/01/08 03:56:39;;;;;;;8.70;2.60;;;9.10;99.90;;;;;;5055237;28;20044;-76
2023/01/08 03:59:04;;;;;;;6.15;2.13;;;9.00;99.90;;;;;;5055228;28;20115;-76
2023/01/08 04:01:30;;;;;;;7.18;2.33;;;9.00;99.90;;;;;;5055310;28;20040;-76
2023/01/08 04:03:55;;;;;;;7.25;1.77;;;9.10;99.90;;;;;;5055172;28;20049;-76
2023/01/08 04:06:21;;;;;;;8.32;2.20;;;9.00;99.90;;;;;;5056258;28;20416;-76
2023/01/08 04:08:47;;;;;;;5.53;1.83;;;9.00;99.90;;;;;;5050895;28;20037;-76
2023/01/08 04:11:12;;;;;;;4.88;1.80;;;9.00;99.90;;;;;;5036325;28;20091;-76
2023/01/08 04:13:38;;;;;;;5.03;1.85;;;9.00;99.90;;;;;;5039853;28;20025;-76
2023/01/08 04:16:04;;;;;;;6.97;2.15;;;9.10;99.90;;;;;;5056204;28;20497;-76
2023/01/08 04:18:29;;;;;;;6.13;2.03;;;9.10;99.90;;;;;;5054051;28;20107;-76
2023/01/08 04:20:55;;;;;;;6.20;2.10;;;9.10;99.90;;;;;;5054984;28;20044;-76
2023/01/08 04:23:21;;;;;;;5.03;2.03;;;9.10;99.90;;;;;;5056231;28;20047;-76
2023/01/08 04:25:46;;;;;;;8.38;2.10;;;9.10;99.90;;;;;;5055224;28;20374;-76
2023/01/08 04:28:12;;;;;;;9.68;2.08;;;9.10;99.90;;;;;;5053886;28;20412;-76
2023/01/08 04:30:37;;;;;;;7.15;2.60;;;9.10;99.90;;;;;;5054173;28;20110;-76
2023/01/08 04:33:03;;;;;;;6.60;2.40;;;9.20;99.90;;;;;;5055821;28;20033;-76
2023/01/08 04:35:28;;;;;;;9.43;2.38;;;9.20;99.90;;;;;;5053928;28;20041;-76
2023/01/08 04:37:54;;;;;;;8.27;2.30;;;9.20;99.90;;;;;;5037774;28;20048;-76
2023/01/08 04:40:19;;;;;;;7.50;2.33;;;9.30;99.90;;;;;;5054914;28;20115;-76
2023/01/08 04:42:45;;;;;;;7.05;2.50;;;9.40;99.90;;;;;;5055554;28;20049;-76
2023/01/08 04:45:11;;;;;;;6.15;1.95;;;9.40;99.90;;;;;;5055570;28;20052;-76
2023/01/08 04:47:36;;;;;;;7.95;2.22;;;9.40;99.90;;;;;;5054373;28;20029;-76
2023/01/08 04:50:02;;;;;;;8.52;2.60;;;9.40;99.90;;;;;;5039355;28;20037;-76
2023/01/08 04:52:28;;;;;;;5.13;1.90;;;9.40;99.90;;;;;;5050664;28;20478;-76
2023/01/08 04:54:53;;;;;;;5.57;2.15;;;9.40;99.90;;;;;;5054664;28;20083;-76
2023/01/08 04:57:19;;;;;;;6.82;2.00;;;9.40;99.90;;;;;;5055397;28;20040;-76
2023/01/08 04:59:45;;;;;;;7.45;1.70;;;9.40;99.90;;;;;;5030103;28;20045;-76
2023/01/08 05:02:10;;;;;;;7.38;1.95;;;9.40;99.90;;;;;;5055034;28;20504;-75
2023/01/08 05:04:36;;;;;;;5.60;1.90;;;9.40;99.90;;;;;;5055251;28;20033;-76
2023/01/08 05:07:03;;;;;;;2.97;1.55;;;9.40;99.90;;;;;;5053919;28;20449;-76
2023/01/08 05:09:29;;;;;;;4.78;1.55;;;9.50;99.90;;;;;;5053630;28;20033;-76
2023/01/08 05:11:54;;;;;;;5.97;1.77;;;9.50;99.90;;;;;;5052789;28;20041;-76
2023/01/08 05:14:20;;;;;;;5.88;1.45;;;9.50;99.90;;;;;;5054890;28;20177;-76
2023/01/08 05:16:46;;;;;;;4.38;1.60;;;9.40;99.90;;;;;;5055282;28;20051;-76
2023/01/08 05:19:12;;;;;;;6.13;1.70;;;9.40;99.90;;;;;;5052895;28;20033;-76
2023/01/08 05:21:38;;;;;;;3.03;1.38;;;9.40;99.90;;;;;;5054840;28;20489;-76
2023/01/08 05:24:04;;;;;;;4.45;1.27;;;9.50;99.90;;;;;;5054199;28;20068;-77
2023/01/08 05:26:29;;;;;;;4.95;1.73;;;9.50;99.90;;;;;;5054918;28;20029;-76
2023/01/08 05:28:55;;;;;;;4.55;1.55;;;9.40;99.90;;;;;;5052809;28;20045;-76
2023/01/08 05:31:20;;;;;;;3.88;1.50;;;9.40;99.90;;;;;;5054663;28;20049;-76
2023/01/08 05:33:46;;;;;;;3.47;1.50;;;9.40;99.90;;;;;;5054527;28;20044;-76
2023/01/08 05:36:13;;;;;;;3.58;1.50;;;9.30;99.90;;;;;;5054643;28;20073;-76
2023/01/08 05:38:39;;;;;;;4.53;1.50;;;9.40;99.90;;;;;;5051773;28;20037;-76
2023/01/08 05:41:05;;;;;;;4.75;1.70;;;9.40;99.90;;;;;;5053230;28;20045;-76
2023/01/08 05:43:31;;;;;;;4.20;1.67;;;9.40;99.90;;;;;;5054630;28;20052;-76
2023/01/08 05:45:58;;;;;;;4.22;1.55;;;9.30;99.90;;;;;;5054508;28;20033;-76
2023/01/08 05:48:25;;;;;;;5.35;1.70;;;9.30;99.90;;;;;;5052644;28;20044;-76
2023/01/08 05:50:51;;;;;;;8.18;1.83;;;9.30;99.90;;;;;;5054240;28;20044;-76
2023/01/08 05:53:16;;;;;;;6.32;1.50;;;9.30;99.90;;;;;;5053558;28;20436;-76
2023/01/08 05:55:42;;;;;;;6.53;1.38;;;9.40;99.90;;;;;;5054237;28;20036;-76
2023/01/08 05:58:08;;;;;;;5.85;1.50;;;9.40;99.90;;;;;;5053240;28;20041;-76
2023/01/08 06:00:34;;;;;;;4.68;1.45;;;9.30;99.90;;;;;;5054051;28;20400;-76
2023/01/08 06:02:59;;;;;;;5.03;1.45;;;9.30;99.90;;;;;;5053813;28;20593;-76
2023/01/08 06:05:25;;;;;;;4.60;1.50;;;9.30;99.90;;;;;;5053442;28;20128;-76
2023/01/08 06:07:51;;;;;;;4.18;1.60;;;9.30;99.90;;;;;;5053020;28;20041;-76
2023/01/08 06:10:16;;;;;;;6.28;2.00;;;9.30;99.90;;;;;;5053122;28;20497;-76
2023/01/08 06:12:42;;;;;;;6.47;1.95;;;9.30;99.90;;;;;;5053360;28;20029;-76
2023/01/08 06:15:10;;;;;;;4.40;1.70;;;9.30;99.90;;;;;;5053115;28;20033;-76
2023/01/08 06:17:35;;;;;;;6.07;2.00;;;9.30;99.90;;;;;;5053850;28;20091;-76
2023/01/08 06:20:01;;;;;;;4.63;1.75;;;9.30;99.90;;;;;;5052642;28;20041;-76
2023/01/08 06:22:26;;;;;;;6.70;1.80;;;9.30;99.90;;;;;;5053916;28;20037;-76
2023/01/08 06:24:52;;;;;;;4.63;1.83;;;9.30;99.90;;;;;;5051860;28;20040;-76
2023/01/08 06:27:18;;;;;;;6.47;2.10;;;9.20;99.90;;;;;;5053739;28;20045;-76
2023/01/08 06:29:43;;;;;;;6.45;1.75;;;9.20;99.90;;;;;;5052697;28;20041;-76
2023/01/08 06:32:09;;;;;;;4.88;1.92;;;9.30;99.90;;;;;;5053425;28;20098;-76
2023/01/08 06:34:35;;;;;;;5.70;2.10;;;9.20;99.90;;;;;;5052331;28;20402;-76
2023/01/08 06:37:00;;;;;;;5.45;2.10;;;9.30;99.90;;;;;;5046716;28;20041;-76
2023/01/08 06:39:26;;;;;;;5.57;2.00;;;9.20;99.90;;;;;;5033637;28;20038;-76
2023/01/08 06:41:52;;;;;;;4.65;1.75;;;9.20;99.90;;;;;;5046549;28;20036;-76
2023/01/08 06:44:17;;;;;;;5.35;1.95;;;9.30;99.90;;;;;;5052295;28;20078;-76
2023/01/08 06:46:43;;;;;;;4.72;1.77;;;9.30;99.90;;;;;;5053104;28;20037;-76
2023/01/08 06:49:09;;;;;;;4.75;1.85;;;9.20;99.90;;;;;;5050506;28;20043;-76
2023/01/08 06:51:35;;;;;;;4.95;1.70;;;9.20;99.90;;;;;;5039683;28;20041;-76
2023/01/08 06:54:01;;;;;;;4.40;1.60;;;9.20;99.90;;;;;;5053291;28;20033;-76
2023/01/08 06:56:27;;;;;;;5.15;1.73;;;9.20;99.90;;;;;;5053341;28;20037;-76
2023/01/08 06:58:53;;;;;;;7.35;2.08;;;9.10;99.90;;;;;;5050687;28;20036;-76
2023/01/08 07:01:18;;;;;;;6.55;1.75;;;9.10;99.90;;;;;;5051453;28;20504;-76
2023/01/08 07:03:44;;;;;;;5.13;1.58;;;9.10;99.90;;;;;;5045498;28;20132;-76
2023/01/08 07:06:18;;;;;;;6.55;1.67;;;9.10;99.90;;;;;;5033266;28;20049;-76
2023/01/08 07:08:44;;;;;;;4.65;1.65;;;9.10;99.90;;;;;;5037780;28;20044;-76
2023/01/08 07:11:10;;;;;;;6.32;1.73;;;9.10;99.90;;;;;;5051999;28;20052;-76
2023/01/08 07:13:36;;;;;;;6.68;1.67;;;9.10;99.90;;;;;;5053081;28;20047;-76
2023/01/08 07:16:09;;;;;;;5.07;1.45;;;9.00;99.90;;;;;;5050010;28;20048;-76
2023/01/08 07:18:35;;;;;;;5.65;1.33;;;9.10;99.90;;;;;;5052086;28;20125;-76
2023/01/08 07:21:02;;;;;;;4.45;2.05;;;9.10;99.90;;;;;;5050935;28;20104;-76
2023/01/08 07:23:28;;;;;;;5.75;1.33;;;9.10;99.90;;;;;;5051467;28;20527;-76
2023/01/08 07:25:54;;;;;;;6.05;1.40;;;9.00;99.90;;;;;;5052046;28;20076;-76
2023/01/08 07:28:19;;;;;;;6.90;1.70;;;9.00;99.90;;;;;;5050317;28;20041;-76
2023/01/08 07:30:45;;;;;;;5.13;1.38;;;8.90;99.90;;;;;;5053004;28;20041;-76
2023/01/08 07:33:11;;;;;;;4.55;1.23;;;8.90;99.90;;;;;;5053468;28;20524;-76
2023/01/08 07:35:37;;;;;;;3.72;1.50;;;8.90;99.90;;;;;;5053048;28;20086;-76
2023/01/08 07:38:03;;;;;;;6.82;1.23;;;8.90;99.90;;;;;;5040086;28;20036;-76
2023/01/08 07:40:30;;;;;;;5.20;1.33;;;8.90;99.90;;;;;;5041288;28;20033;-76
2023/01/08 07:42:58;;;;;;;5.18;1.80;;;8.90;99.90;;;;;;5050857;28;20090;-76
2023/01/08 07:45:23;;;;;;;5.18;1.10;;;8.80;99.90;;;;;;5034518;28;20048;-76
2023/01/08 07:47:49;;;;;;;6.30;1.30;;;8.80;99.90;;;;;;5044156;28;20033;-76
2023/01/08 07:50:15;;;;;;;5.82;1.23;;;8.80;99.90;;;;;;5048480;28;20056;-76
2023/01/08 07:52:40;;;;;;;6.07;1.75;;;8.80;99.90;;;;;;5052088;28;20059;-76
2023/01/08 07:55:06;;;;;;;7.35;1.60;;;8.80;99.90;;;;;;5045171;28;20031;-76
2023/01/08 07:57:31;;;;;;;6.78;2.47;;;8.80;99.90;;;;;;5040635;28;20117;-76
2023/01/08 07:59:57;;;;;;;4.47;1.77;;;8.80;99.90;;;;;;5045750;28;20037;-75
2023/01/08 08:02:22;;;;;;;5.22;1.88;;;8.80;99.90;;;;;;5049339;28;20056;-76
2023/01/08 08:04:48;;;;;;;5.55;2.53;;;8.90;99.90;;;;;;5055794;28;20408;-76
2023/01/08 08:07:14;;;;;;;5.63;2.10;;;8.90;99.90;;;;;;5055999;28;20111;-76
2023/01/08 08:09:39;;;;;;;7.85;2.30;;;8.80;99.90;;;;;;5054616;28;20047;-76
2023/01/08 08:12:05;;;;;;;7.18;2.22;;;8.80;99.90;;;;;;5050450;28;20036;-77
2023/01/08 08:14:31;;;;;;;6.28;2.10;;;8.80;99.90;;;;;;5053744;28;20047;-76
2023/01/08 08:16:56;;;;;;;8.07;2.28;;;8.70;99.90;;;;;;5055764;28;20090;-76
2023/01/08 08:19:22;;;;;;;6.38;2.10;;;8.80;99.90;;;;;;5054800;28;20037;-76
2023/01/08 08:21:47;;;;;;;7.90;2.03;;;8.70;99.90;;;;;;5047438;28;20504;-76
2023/01/08 08:24:13;;;;;;;6.20;1.92;;;8.70;99.90;;;;;;5042397;28;20405;-75
2023/01/08 08:26:38;;;;;;;5.88;1.88;;;8.60;99.90;;;;;;5027052;28;20041;-76
2023/01/08 08:29:04;;;;;;;7.20;2.38;;;8.70;99.90;;;;;;5044771;28;20128;-75
2023/01/08 08:31:29;;;;;;;7.95;2.20;;;8.60;99.90;;;;;;5046763;28;20048;-75
2023/01/08 08:33:55;;;;;;;7.18;1.92;;;8.60;99.90;;;;;;5054170;28;20044;-75
2023/01/08 08:36:26;;;;;;;7.82;1.98;;;8.60;99.90;;;;;;5037679;28;20037;-76
2023/01/08 08:38:51;;;;;;;10.93;2.30;;;8.60;99.90;;;;;;5049069;28;20037;-75
2023/01/08 08:41:17;;;;;;;6.47;1.80;;;8.60;99.90;;;;;;5053000;28;20444;-75
2023/01/08 08:43:43;;;;;;;7.45;1.88;;;8.50;99.90;;;;;;5054395;28;20507;-76
2023/01/08 08:46:08;;;;;;;7.90;1.88;;;8.60;99.90;;;;;;5048853;28;20547;-76
2023/01/08 08:48:34;;;;;;;6.38;2.10;;;8.60;99.90;;;;;;5037328;28;20048;-76
2023/01/08 08:50:59;;;;;;;5.57;1.83;;;8.70;99.90;;;;;;5043845;28;20044;-76
2023/01/08 08:53:25;;;;;;;4.63;1.40;;;8.60;99.90;;;;;;5052846;28;20052;-76
2023/01/08 08:55:50;;;;;;;7.35;1.63;;;8.60;99.90;;;;;;5034487;28;20048;-75
2023/01/08 08:58:16;;;;;;;5.55;1.75;;;8.60;99.90;;;;;;5051310;28;20042;-76
2023/01/08 09:00:42;;;;;;;4.90;1.40;;;8.60;99.90;;;;;;5051727;28;20037;-74
2023/01/08 09:03:13;;;;;;;7.82;1.83;;;8.60;99.90;;;;;;5049558;28;20049;-75
2023/01/08 09:05:39;;;;;;;6.18;1.63;;;8.60;99.90;;;;;;5044395;28;20383;-75
2023/01/08 09:08:05;;;;;;;6.72;1.58;;;8.60;99.90;;;;;;5049083;28;20041;-75
2023/01/08 09:10:30;;;;;;;5.30;1.70;;;8.60;99.90;;;;;;5034327;28;20124;-75
2023/01/08 09:12:56;;;;;;;6.50;1.60;;;8.60;99.90;;;;;;5051910;28;20043;-75
2023/01/08 09:15:22;;;;;;;9.50;1.95;;;8.70;99.90;;;;;;5053833;28;20090;-75
2023/01/08 09:17:57;;;;;;;4.30;1.40;;;8.70;99.90;;;;;;5049262;28;20041;-76
2023/01/08 09:20:24;;;;;;;5.15;1.30;;;8.60;99.90;;;;;;5044147;28;20043;-75
2023/01/08 09:22:49;;;;;;;7.07;1.35;;;8.70;99.90;;;;;;5049825;28;20071;-75
2023/01/08 09:25:16;;;;;;;6.63;1.45;;;8.80;99.90;;;;;;5054369;28;20458;-75
2023/01/08 09:27:41;;;;;;;5.97;1.35;;;8.80;99.90;;;;;;5037102;28;20555;-75
2023/01/08 09:30:08;;;;;;;5.07;1.40;;;8.80;99.90;;;;;;5049790;28;20048;-75
2023/01/08 09:32:33;;;;;;;8.00;1.67;;;8.80;99.90;;;;;;5053299;28;20404;-75
2023/01/08 09:34:59;;;;;;;7.88;1.70;;;8.80;99.90;;;;;;5044837;28;20120;-75
2023/01/08 09:37:24;;;;;;;5.72;1.35;;;8.80;99.90;;;;;;5049509;28;20045;-76
2023/01/08 09:39:50;;;;;;;4.30;1.20;;;8.90;99.90;;;;;;5038675;28;20547;-75
2023/01/08 09:42:20;;;;;;;4.45;1.42;;;8.90;99.90;;;;;;5049607;28;20044;-76
2023/01/08 09:44:48;;;;;;;4.18;1.23;;;8.90;99.90;;;;;;5052135;28;20040;-76
2023/01/08 09:47:38;;;;;;;4.75;1.08;;;8.90;99.90;;;;;;5054256;28;20082;-76
2023/01/08 09:50:09;;;;;;;7.18;2.22;;;9.00;99.90;;;;;;5054696;28;20029;-76
2023/01/08 09:52:37;;;;;;;7.68;1.90;;;9.00;99.90;;;;;;5049892;28;20044;-75
2023/01/08 09:55:05;;;;;;;6.57;1.35;;;9.10;99.90;;;;;;5042128;28;20039;-75
2023/01/08 09:57:31;;;;;;;7.18;1.48;;;9.10;99.90;;;;;;5050643;28;20067;-75
2023/01/08 09:59:57;;;;;;;6.22;1.70;;;9.10;99.90;;;;;;5040855;28;20084;-76
2023/01/08 10:02:25;;;;;;;6.25;1.70;;;9.20;99.90;;;;;;5067003;28;20057;-75
2023/01/08 10:04:55;;;;;;;8.30;1.83;;;9.20;99.90;;;;;;5053002;28;20083;-76
2023/01/08 10:07:23;;;;;;;5.65;1.60;;;9.20;99.90;;;;;;5053033;28;20492;-76
2023/01/08 10:09:50;;;;;;;8.38;1.30;;;9.20;99.90;;;;;;5049735;28;20401;-76
2023/01/08 10:12:24;;;;;;;8.13;1.55;;;9.30;99.90;;;;;;5045767;28;20045;-76
2023/01/08 10:14:51;;;;;;;5.85;1.15;;;9.30;99.90;;;;;;5052107;28;20048;-76
2023/01/08 10:17:37;;;;;;;7.10;1.40;;;9.30;99.90;;;;;;5053467;28;20051;-76
2023/01/08 10:20:11;;;;;;;7.72;1.65;;;9.40;99.90;;;;;;5049825;28;20497;-76
2023/01/08 10:22:37;;;;;;;7.93;1.55;;;9.50;99.90;;;;;;5050028;28;20039;-76
2023/01/08 10:25:09;;;;;;;7.93;1.60;;;9.50;99.90;;;;;;5053456;28;20037;-76
2023/01/08 10:27:47;;;;;;;6.57;1.27;;;9.50;99.90;;;;;;5042335;28;20041;-76
2023/01/08 10:30:19;;;;;;;6.95;1.45;;;9.60;99.90;;;;;;5040707;28;20045;-76
2023/01/08 10:32:53;;;;;;;12.98;2.20;;;9.60;99.90;;;;;;5052227;28;20040;-76
2023/01/08 10:35:22;;;;;;;9.65;1.85;;;9.70;99.90;;;;;;5050613;28;20033;-76
2023/01/08 10:37:49;;;;;;;4.93;1.13;;;9.70;99.90;;;;;;5051589;28;20041;-76
2023/01/08 10:40:49;;;;;;;6.13;1.17;;;9.80;99.90;;;;;;5048366;28;20041;-76
2023/01/08 10:43:19;;;;;;;5.75;1.00;;;9.90;99.90;;;;;;5051238;28;20500;-76
2023/01/08 10:46:03;;;;;;;9.82;1.60;;;9.90;99.90;;;;;;5047758;28;20041;-76
2023/01/08 10:48:35;;;;;;;6.55;1.25;;;9.90;99.90;;;;;;5046315;28;20095;-76
2023/01/08 10:51:17;;;;;;;5.72;1.17;;;10.00;99.90;;;;;;5033578;28;20432;-76
2023/01/08 10:53:43;;;;;;;8.52;1.70;;;10.00;99.90;;;;;;5050616;28;20064;-76
2023/01/08 10:56:19;;;;;;;14.07;1.80;;;10.00;99.90;;;;;;5050212;28;20076;-76
2023/01/08 10:58:45;;;;;;;9.07;1.98;;;10.00;99.90;;;;;;5041265;28;20054;-76
2023/01/08 11:01:16;;;;;;;7.10;1.38;;;10.10;99.90;;;;;;5048765;28;20541;-76
2023/01/08 11:03:42;;;;;;;2.78;0.82;;;10.10;99.90;;;;;;5043294;28;20075;-76
2023/01/08 11:06:16;;;;;;;5.75;1.33;;;10.10;99.90;;;;;;5053302;28;20041;-77
2023/01/08 11:08:50;;;;;;;10.18;1.80;;;10.00;99.90;;;;;;5050788;28;20040;-76
2023/01/08 11:11:16;;;;;;;6.53;1.20;;;10.10;99.90;;;;;;5050863;28;20075;-76
2023/01/08 11:14:00;;;;;;;8.23;1.35;;;10.10;99.90;;;;;;5038323;28;20096;-76
2023/01/08 11:16:37;;;;;;;8.02;1.60;;;10.10;99.90;;;;;;5037041;28;20041;-76
2023/01/08 11:19:04;;;;;;;7.45;1.38;;;10.10;99.90;;;;;;5039095;28;20041;-76
2023/01/08 11:21:32;;;;;;;5.60;1.90;;;10.10;99.90;;;;;;5062358;28;20049;-76
2023/01/08 11:24:16;;;;;;;8.18;1.65;;;10.00;99.90;;;;;;5051334;28;20115;-76
2023/01/08 11:26:50;;;;;;;8.82;1.90;;;10.00;99.90;;;;;;5050084;28;20477;-76
2023/01/08 11:29:37;;;;;;;5.65;1.10;;;10.00;99.90;;;;;;5051438;28;20053;-76
2023/01/08 11:32:17;;;;;;;10.45;1.70;;;9.90;99.90;;;;;;5044336;28;20592;-76
2023/01/08 11:35:02;;;;;;;7.15;1.30;;;9.90;99.90;;;;;;5050914;28;20120;-76
2023/01/08 11:37:34;;;;;;;7.97;1.73;;;9.90;99.90;;;;;;5046755;28;20576;-76
2023/01/08 11:40:00;;;;;;;10.30;1.83;;;9.90;99.90;;;;;;5056002;28;20077;-76
2023/01/08 11:42:33;;;;;;;6.18;1.60;;;9.90;99.90;;;;;;5056278;28;20048;-76
2023/01/08 11:45:35;;;;;;;8.45;1.40;;;9.90;99.90;;;;;;5056862;28;20489;-76
2023/01/08 11:48:14;;;;;;;10.18;1.52;;;9.90;99.90;;;;;;5056187;28;20037;-76
2023/01/08 11:51:07;;;;;;;8.98;1.73;;;9.80;99.90;;;;;;5056128;28;20041;-76
2023/01/08 11:53:41;;;;;;;7.78;1.50;;;9.80;99.90;;;;;;5038243;28;20036;-76
2023/01/08 11:56:38;;;;;;;5.15;1.23;;;9.70;99.90;;;;;;5043727;28;20591;-76
2023/01/08 11:59:31;;;;;;;12.18;2.03;;;9.80;99.90;;;;;;5053205;28;20478;-76
2023/01/08 12:02:19;;;;;;;8.90;1.38;;;9.70;99.90;;;;;;5056165;28;20059;-76
2023/01/08 12:04:54;;;;;;;8.98;1.88;;;9.60;99.90;;;;;;5057129;28;20130;-76
2023/01/08 12:07:42;;;;;;;10.63;1.25;;;9.60;99.90;;;;;;5054052;28;20041;-76
2023/01/08 12:10:32;;;;;;;8.68;2.42;;;9.60;99.90;;;;;;5046913;28;20033;-76
2023/01/08 12:13:23;;;;;;;8.57;1.52;;;9.60;99.90;;;;;;5050664;28;20049;-76
2023/01/08 12:16:21;;;;;;;7.25;1.60;;;9.60;99.90;;;;;;5050732;28;20041;-76
2023/01/08 12:19:06;;;;;;;11.55;1.63;;;9.50;99.90;;;;;;5052510;28;20182;-76
2023/01/08 12:21:41;;;;;;;9.15;2.20;;;9.50;99.90;;;;;;5039119;28;20436;-76
2023/01/08 12:24:40;;;;;;;11.85;2.50;;;9.60;99.90;;;;;;5034829;28;20417;-76
2023/01/08 12:27:18;;;;;;;8.40;1.88;;;9.60;99.90;;;;;;5045665;28;20087;-76
2023/01/08 12:29:57;;;;;;;8.80;2.28;;;9.70;99.90;;;;;;5048571;28;20032;-76
2023/01/08 12:32:29;;;;;;;8.05;2.22;;;9.70;99.90;;;;;;5044130;28;20065;-76
2023/01/08 12:34:56;;;;;;;8.27;1.65;;;9.80;99.90;;;;;;5037429;28;20548;-76
2023/01/08 12:37:32;;;;;;;6.53;1.70;;;9.80;99.90;;;;;;5048499;28;20044;-75
2023/01/08 12:40:06;;;;;;;7.88;1.90;;;9.80;99.90;;;;;;5050253;28;20564;-76
2023/01/08 12:42:36;;;;;;;9.13;1.98;;;9.80;99.90;;;;;;5039391;28;20042;-76
2023/01/08 12:45:04;;;;;;;8.07;2.35;;;9.80;99.90;;;;;;5052276;28;20045;-76
2023/01/08 12:47:34;;;;;;;10.30;1.98;;;9.80;99.90;;;;;;5043224;28;20083;-76
2023/01/08 12:50:06;;;;;;;7.45;1.70;;;9.70;99.90;;;;;;5053255;28;20045;-76
2023/01/08 12:52:44;;;;;;;4.43;1.60;;;9.70;99.90;;;;;;5054020;28;20091;-76
2023/01/08 12:55:36;;;;;;;8.88;1.58;;;9.70;99.90;;;;;;5047961;28;20482;-76
2023/01/08 12:58:27;;;;;;;9.63;1.73;;;9.80;99.90;;;;;;5066503;28;20037;-76
2023/01/08 13:01:10;;;;;;;13.15;2.15;;;9.70;99.90;;;;;;5041591;28;20036;-76
2023/01/08 13:03:37;;;;;;;8.75;1.92;;;9.80;99.90;;;;;;5050640;28;20067;-76
2023/01/08 13:06:09;;;;;;;8.88;1.40;;;9.80;99.90;;;;;;5054271;28;20040;-76